Time;durP1;ratioP1;P1;durP2;ratioP2;P2;SDS_P1;SDS_P2;PMS_P1;PMS_P2;Temp;Humidity;BMP_temperature;BMP_pressure;BME280_temperature;BME280_humidity;BME280_pressure;Samples;Min_cycle;Max_cycle;Signal;HPM_P1;HPM_P2
2021/03/11 05:01:08;;;;;;;;;;;9.50;99.90;;;;;;5732085;22;20003;-64
2021/03/11 05:03:34;;;;;;;;;;;9.60;99.90;;;;;;5021924;28;19932;-64
2021/03/11 05:06:00;;;;;;;;;;;9.80;99.90;;;;;;5018186;28;19933;-63
2021/03/11 05:08:26;;;;;;;;;;;9.80;99.90;;;;;;5040060;23;19926;-64
2021/03/11 05:10:52;;;;;;;;;;;9.90;99.90;;;;;;5016237;28;19980;-65
2021/03/11 05:13:18;;;;;;;;;;;9.90;99.90;;;;;;5016293;28;19929;-63
2021/03/11 05:15:44;;;;;;;;;;;10.00;99.90;;;;;;5018753;28;19925;-63
2021/03/11 05:18:11;;;;;;;;;;;10.00;99.90;;;;;;5019572;28;19926;-64
2021/03/11 05:20:37;;;;;;;;;;;10.10;99.90;;;;;;5016250;28;19930;-63
2021/03/11 05:23:03;;;;;;;;;;;10.10;99.90;;;;;;5015804;28;20013;-63
2021/03/11 05:25:29;;;;;;;;;;;10.10;99.90;;;;;;5015486;28;19926;-63
2021/03/11 05:27:55;;;;;;;;;;;10.10;99.90;;;;;;5015585;28;19925;-63
2021/03/11 05:30:22;;;;;;;;;;;10.10;99.90;;;;;;5015689;28;19934;-63
2021/03/11 05:32:48;;;;;;;;;;;10.20;99.90;;;;;;5015753;28;19973;-63
2021/03/11 05:35:14;;;;;;;;;;;10.20;99.90;;;;;;5016112;28;19925;-63
2021/03/11 05:37:40;;;;;;;;;;;10.30;99.90;;;;;;5015932;28;19925;-63
2021/03/11 05:40:08;;;;;;;;;;;10.30;99.90;;;;;;5016628;28;19936;-64
2021/03/11 05:42:34;;;;;;;;;;;10.20;99.90;;;;;;5016456;28;19969;-64
2021/03/11 05:45:04;;;;;;;;;;;10.20;99.90;;;;;;5016316;28;20364;-64
2021/03/11 05:47:31;;;;;;;;;;;10.30;99.90;;;;;;5016300;28;20013;-64
2021/03/11 05:49:57;;;;;;;;;;;10.20;99.90;;;;;;5016161;28;19929;-63
2021/03/11 05:52:24;;;;;;;;;;;10.20;99.90;;;;;;5016436;28;19933;-63
2021/03/11 05:54:51;;;;;;;;;;;10.20;99.90;;;;;;5015874;28;19925;-63
2021/03/11 05:57:17;;;;;;;;;;;10.20;99.90;;;;;;5015681;28;19929;-63
2021/03/11 05:59:43;;;;;;;;;;;10.20;99.90;;;;;;5015555;28;19952;-63
2021/03/11 06:02:09;;;;;;;;;;;10.20;99.90;;;;;;5015213;28;20401;-65
2021/03/11 06:04:35;;;;;;;;;;;10.30;99.90;;;;;;5015460;28;20308;-62
2021/03/11 06:07:01;;;;;;;;;;;10.50;99.90;;;;;;5014806;28;19925;-65
2021/03/11 06:09:29;;;;;;;;;;;10.50;99.90;;;;;;5015115;28;19933;-63
2021/03/11 06:11:56;;;;;;;;;;;10.40;99.90;;;;;;5015520;28;19925;-63
2021/03/11 06:14:23;;;;;;;;;;;10.40;99.90;;;;;;5014901;28;19925;-63
2021/03/11 06:16:50;;;;;;;;;;;10.40;99.90;;;;;;5014863;28;19976;-63
2021/03/11 06:19:16;;;;;;;;;;;10.30;99.90;;;;;;5014705;28;19929;-62
2021/03/11 06:21:44;;;;;;;;;;;10.30;99.90;;;;;;5014816;28;19929;-62
2021/03/11 06:24:10;;;;;;;;;;;10.30;99.90;;;;;;5014556;28;19925;-62
2021/03/11 06:26:37;;;;;;;;;;;10.40;99.90;;;;;;5014675;28;19925;-62
2021/03/11 06:29:03;;;;;;;;;;;10.30;99.90;;;;;;5014014;28;20402;-62
2021/03/11 06:31:30;;;;;;;;;;;10.30;99.90;;;;;;5014362;28;19925;-62
2021/03/11 06:33:57;;;;;;;;;;;10.30;99.90;;;;;;5014603;28;19933;-63
2021/03/11 06:36:24;;;;;;;;;;;10.20;99.90;;;;;;5014607;28;19933;-63
2021/03/11 06:38:50;;;;;;;;;;;10.30;99.90;;;;;;5014051;28;19925;-63
2021/03/11 06:41:16;;;;;;;;;;;10.40;99.90;;;;;;5014296;28;19937;-63
2021/03/11 06:43:53;;;;;;;;;;;10.30;99.90;;;;;;5014473;28;19926;-63
2021/03/11 06:46:20;;;;;;;;;;;10.40;99.90;;;;;;5014564;28;19925;-63
2021/03/11 06:48:47;;;;;;;;;;;10.40;99.90;;;;;;5017598;28;19932;-62
2021/03/11 06:51:17;;;;;;;;;;;10.40;99.90;;;;;;5014682;28;20380;-63
2021/03/11 06:53:54;;;;;;;;;;;10.50;99.90;;;;;;5014703;28;19944;-63
2021/03/11 06:56:20;;;;;;;;;;;10.50;99.90;;;;;;5014948;28;19975;-62
2021/03/11 06:58:54;;;;;;;;;;;10.50;99.90;;;;;;5014372;28;20458;-64
2021/03/11 07:01:22;;;;;;;;;;;10.60;99.90;;;;;;5015011;28;19948;-64
2021/03/11 07:03:48;;;;;;;;;;;10.70;99.90;;;;;;5016416;28;19925;-63
2021/03/11 07:06:24;;;;;;;;;;;10.80;99.90;;;;;;5016126;28;19925;-64
2021/03/11 07:08:51;;;;;;;;;;;10.80;99.90;;;;;;5015170;28;20347;-62
2021/03/11 07:11:17;;;;;;;;;;;10.80;99.90;;;;;;5015188;28;19936;-63
2021/03/11 07:13:43;;;;;;;;;;;11.00;99.90;;;;;;5014708;28;20044;-62
2021/03/11 07:16:13;;;;;;;;;;;11.20;99.90;;;;;;5014717;28;19926;-62
2021/03/11 07:18:39;;;;;;;;;;;11.40;99.90;;;;;;5014469;28;19926;-62
2021/03/11 07:21:05;;;;;;;;;;;11.30;99.90;;;;;;5014664;28;19932;-62
2021/03/11 07:23:31;;;;;;;;;;;11.40;99.90;;;;;;5014473;28;19933;-62
2021/03/11 07:25:57;;;;;;;;;;;11.50;99.90;;;;;;5014571;28;19961;-62
2021/03/11 07:28:26;;;;;;;;;;;11.60;99.90;;;;;;5013724;28;21212;-62
2021/03/11 07:30:53;;;;;;;;;;;11.70;99.90;;;;;;5014681;28;19925;-64
2021/03/11 07:33:20;;;;;;;;;;;11.70;99.90;;;;;;5014421;28;19932;-62
2021/03/11 07:35:47;;;;;;;;;;;11.80;99.90;;;;;;5014088;28;19929;-63
2021/03/11 07:38:16;;;;;;;;;;;11.80;99.90;;;;;;5014141;28;19992;-62
2021/03/11 07:40:42;;;;;;;;;;;11.80;99.90;;;;;;5014250;28;19968;-63
2021/03/11 07:43:08;;;;;;;;;;;11.80;99.90;;;;;;5014365;28;19926;-63
2021/03/11 07:45:34;;;;;;;;;;;11.90;99.90;;;;;;5019058;28;19944;-60
2021/03/11 07:48:01;;;;;;;;;;;12.00;99.90;;;;;;5015993;28;19926;-60
2021/03/11 07:50:28;;;;;;;;;;;12.10;99.90;;;;;;5014252;28;19933;-60
2021/03/11 07:52:56;;;;;;;;;;;12.10;99.90;;;;;;5013798;28;19930;-61
2021/03/11 07:55:25;;;;;;;;;;;12.00;99.90;;;;;;5013871;28;20044;-62
2021/03/11 07:57:51;;;;;;;;;;;12.00;99.90;;;;;;5013972;28;19925;-61
2021/03/11 08:00:23;;;;;;;;;;;12.00;99.90;;;;;;5013855;28;19975;-61
2021/03/11 08:02:50;;;;;;;;;;;11.90;99.90;;;;;;5013817;28;19926;-61
2021/03/11 08:05:24;;;;;;;;;;;11.90;99.90;;;;;;5013453;28;20288;-61
2021/03/11 08:08:10;;;;;;;;;;;11.90;99.90;;;;;;5013377;28;19952;-61
2021/03/11 08:10:39;;;;;;;;;;;11.80;99.90;;;;;;5013728;28;19925;-61
2021/03/11 08:13:20;;;;;;;;;;;12.00;99.90;;;;;;5014448;28;19925;-60
2021/03/11 08:15:46;;;;;;;;;;;12.00;99.90;;;;;;5014613;28;20347;-60
2021/03/11 08:18:39;;;;;;;;;;;12.10;99.90;;;;;;5014999;28;19976;-62
2021/03/11 08:21:05;;;;;;;;;;;12.20;99.90;;;;;;5013924;28;19925;-60
2021/03/11 08:23:33;;;;;;;;;;;12.40;99.90;;;;;;5014012;28;19956;-62
2021/03/11 08:25:59;;;;;;;;;;;12.70;99.90;;;;;;5014751;28;19926;-61
2021/03/11 08:28:40;;;;;;;;;;;13.00;99.90;;;;;;5013588;28;19983;-61
2021/03/11 08:31:07;;;;;;;;;;;12.80;99.90;;;;;;5016140;28;19926;-61
2021/03/11 08:33:54;;;;;;;;;;;12.70;99.90;;;;;;5017047;28;20320;-61
2021/03/11 08:36:33;;;;;;;;;;;12.70;99.90;;;;;;5017118;28;19926;-61
2021/03/11 08:39:00;;;;;;;;;;;12.70;99.90;;;;;;5016837;28;19926;-61
2021/03/11 08:41:28;;;;;;;;;;;12.80;99.90;;;;;;5016968;28;19968;-61
2021/03/11 08:43:54;;;;;;;;;;;12.80;99.90;;;;;;5018638;28;19980;-61
2021/03/11 08:46:21;;;;;;;;;;;12.90;99.90;;;;;;5016761;28;19984;-61
2021/03/11 08:48:49;;;;;;;;;;;12.70;99.90;;;;;;5016835;28;19930;-61
2021/03/11 08:51:33;;;;;;;;;;;12.70;99.90;;;;;;5017169;28;19932;-60
2021/03/11 08:54:00;;;;;;;;;;;12.80;99.90;;;;;;5017321;28;19925;-61
2021/03/11 08:56:40;;;;;;;;;;;13.10;99.90;;;;;;5017073;28;19929;-61
2021/03/11 08:59:07;;;;;;;;;;;13.20;99.90;;;;;;5016930;28;19933;-63
2021/03/11 09:01:37;;;;;;;;;;;13.20;99.90;;;;;;5018231;28;20264;-61
2021/03/11 09:04:04;;;;;;;;;;;13.30;99.90;;;;;;5017690;28;19932;-64
2021/03/11 09:06:49;;;;;;;;;;;13.20;99.90;;;;;;5017297;28;19929;-61
2021/03/11 09:09:16;;;;;;;;;;;13.10;99.90;;;;;;5017095;28;19933;-63
2021/03/11 09:11:52;;;;;;;;;;;13.10;99.90;;;;;;5017107;28;19948;-62
2021/03/11 09:14:20;;;;;;;;;;;13.00;99.90;;;;;;5017802;28;19925;-61
2021/03/11 09:16:46;;;;;;;;;;;12.90;99.90;;;;;;5017761;28;19929;-63
2021/03/11 09:19:12;;;;;;;;;;;12.90;99.90;;;;;;5016589;28;19926;-61
2021/03/11 09:21:39;;;;;;;;;;;12.70;99.90;;;;;;5016641;28;19925;-62
2021/03/11 09:24:05;;;;;;;;;;;12.80;99.90;;;;;;5016119;28;19933;-62
2021/03/11 09:26:33;;;;;;;;;;;12.80;99.90;;;;;;5015961;28;19933;-61
2021/03/11 09:29:00;;;;;;;;;;;12.90;99.90;;;;;;5015957;28;19968;-62
2021/03/11 09:31:27;;;;;;;;;;;13.00;99.90;;;;;;5016043;28;19933;-61
2021/03/11 09:33:54;;;;;;;;;;;12.90;99.90;;;;;;5016225;28;19925;-61
2021/03/11 09:36:20;;;;;;;;;;;12.90;99.90;;;;;;5016062;28;19926;-61
2021/03/11 09:38:46;;;;;;;;;;;13.00;99.90;;;;;;5016126;28;19926;-61
2021/03/11 09:41:12;;;;;;;;;;;13.00;99.90;;;;;;5015859;28;20373;-61
2021/03/11 09:43:40;;;;;;;;;;;12.90;99.90;;;;;;5016203;28;19956;-61
2021/03/11 09:46:10;;;;;;;;;;;13.00;99.90;;;;;;5015609;28;19976;-61
2021/03/11 09:48:38;;;;;;;;;;;13.00;99.90;;;;;;5015491;28;20261;-62
2021/03/11 09:51:06;;;;;;;;;;;13.10;99.90;;;;;;5015646;28;20008;-62
2021/03/11 09:53:50;;;;;;;;;;;13.10;99.90;;;;;;5016199;28;19926;-61
2021/03/11 09:56:18;;;;;;;;;;;13.20;99.90;;;;;;5015587;28;19925;-61
2021/03/11 09:58:45;;;;;;;;;;;13.20;99.90;;;;;;5015638;28;19953;-62
2021/03/11 10:01:19;;;;;;;;;;;13.20;99.90;;;;;;5015459;28;19945;-62
2021/03/11 10:03:45;;;;;;;;;;;13.30;99.90;;;;;;5016476;28;19929;-61
2021/03/11 10:06:14;;;;;;;;;;;13.30;99.90;;;;;;5016215;28;19925;-62
2021/03/11 10:08:41;;;;;;;;;;;13.40;99.90;;;;;;5015282;28;19925;-61
2021/03/11 10:11:09;;;;;;;;;;;13.40;99.90;;;;;;5015301;28;20305;-62
2021/03/11 10:13:40;;;;;;;;;;;13.40;99.90;;;;;;5015353;28;19933;-62
2021/03/11 10:16:07;;;;;;;;;;;13.40;99.90;;;;;;5014559;28;19926;-62
2021/03/11 10:18:33;;;;;;;;;;;13.50;99.90;;;;;;5014640;28;20384;-62
2021/03/11 10:21:00;;;;;;;;;;;13.60;99.90;;;;;;5014666;28;19933;-62
2021/03/11 10:23:26;;;;;;;;;;;13.70;99.90;;;;;;5015064;28;19983;-62
2021/03/11 10:26:11;;;;;;;;;;;13.80;99.90;;;;;;5015172;28;19925;-62
2021/03/11 10:28:38;;;;;;;;;;;13.90;99.90;;;;;;5015081;28;19936;-63
2021/03/11 10:31:05;;;;;;;;;;;13.90;99.90;;;;;;5015850;28;19925;-62
2021/03/11 10:33:32;;;;;;;;;;;13.90;99.90;;;;;;5015907;28;20052;-62
2021/03/11 10:36:09;;;;;;;;;;;13.90;99.90;;;;;;5016937;28;20272;-62
2021/03/11 10:38:36;;;;;;;;;;;14.00;99.90;;;;;;5016106;28;19925;-63
2021/03/11 10:41:09;;;;;;;;;;;13.90;99.90;;;;;;5015920;28;19925;-62
2021/03/11 10:43:35;;;;;;;;;;;14.00;99.90;;;;;;5021550;28;19933;-61
2021/03/11 10:46:01;;;;;;;;;;;13.90;99.90;;;;;;5024071;28;19925;-61
2021/03/11 10:48:27;;;;;;;;;;;13.90;99.90;;;;;;5015939;28;19937;-62
2021/03/11 10:50:54;;;;;;;;;;;13.90;99.90;;;;;;5015990;28;19925;-63
2021/03/11 10:53:35;;;;;;;;;;;14.00;99.90;;;;;;5015144;28;19925;-62
2021/03/11 10:56:05;;;;;;;;;;;13.90;99.90;;;;;;5015486;28;20403;-61
2021/03/11 10:58:31;;;;;;;;;;;14.00;99.90;;;;;;5015768;28;19988;-62
2021/03/11 11:01:05;;;;;;;;;;;14.00;99.90;;;;;;5015551;28;19929;-63
2021/03/11 11:03:31;;;;;;;;;;;13.90;99.90;;;;;;5015939;28;19925;-62
2021/03/11 11:05:57;;;;;;;;;;;13.80;99.90;;;;;;5015363;28;19929;-63
2021/03/11 11:08:24;;;;;;;;;;;13.60;99.90;;;;;;5030908;23;19929;-66
2021/03/11 11:10:50;;;;;;;;;;;13.50;99.90;;;;;;5015974;28;19925;-69
2021/03/11 11:13:16;;;;;;;;;;;13.30;99.90;;;;;;5016019;28;19959;-69
2021/03/11 11:15:42;;;;;;;;;;;13.30;99.90;;;;;;5015979;28;19925;-68
2021/03/11 11:18:08;;;;;;;;;;;13.20;99.90;;;;;;5016189;28;19952;-68
2021/03/11 11:20:36;;;;;;;;;;;13.30;99.90;;;;;;5015865;28;20383;-69
2021/03/11 11:23:03;;;;;;;;;;;13.10;99.90;;;;;;5015943;28;19929;-67
2021/03/11 11:25:29;;;;;;;;;;;13.10;99.90;;;;;;5016014;28;19976;-68
2021/03/11 11:27:55;;;;;;;;;;;13.20;99.90;;;;;;5015962;28;19936;-69
2021/03/11 11:30:21;;;;;;;;;;;13.20;99.90;;;;;;5021274;28;19925;-69
2021/03/11 11:32:47;;;;;;;;;;;13.20;99.90;;;;;;5026599;28;20352;-68
2021/03/11 11:35:14;;;;;;;;;;;13.10;99.90;;;;;;5016102;28;20384;-69
2021/03/11 11:37:40;;;;;;;;;;;13.10;99.90;;;;;;5015376;28;20331;-68
2021/03/11 11:40:08;;;;;;;;;;;13.10;99.90;;;;;;5015390;28;19925;-68
2021/03/11 11:42:35;;;;;;;;;;;13.00;99.90;;;;;;5015345;28;19925;-69
2021/03/11 11:45:01;;;;;;;;;;;13.00;99.90;;;;;;5015575;28;19926;-68
2021/03/11 11:47:27;;;;;;;;;;;13.00;99.90;;;;;;5015514;28;19925;-67
2021/03/11 11:49:53;;;;;;;;;;;13.00;99.90;;;;;;5015151;28;19930;-67
2021/03/11 11:52:19;;;;;;;;;;;13.00;99.90;;;;;;5015421;28;19925;-68
2021/03/11 11:54:45;;;;;;;;;;;13.00;99.90;;;;;;5015617;28;19926;-68
2021/03/11 11:57:12;;;;;;;;;;;12.90;99.90;;;;;;5015091;28;19983;-68
2021/03/11 11:59:38;;;;;;;;;;;12.90;99.90;;;;;;5014799;28;20400;-68
2021/03/11 12:02:04;;;;;;;;;;;12.80;99.90;;;;;;5015267;28;19948;-69
2021/03/11 12:04:31;;;;;;;;;;;12.80;99.90;;;;;;5017121;28;19933;-67
2021/03/11 12:06:57;;;;;;;;;;;12.90;99.90;;;;;;5019304;28;19930;-68
2021/03/11 12:09:23;;;;;;;;;;;13.00;99.90;;;;;;5018612;28;19936;-68
2021/03/11 12:11:49;;;;;;;;;;;13.10;99.90;;;;;;5019415;28;19925;-68
2021/03/11 12:14:16;;;;;;;;;;;13.20;99.90;;;;;;5019447;28;19925;-69
2021/03/11 12:16:42;;;;;;;;;;;13.40;99.90;;;;;;5018988;28;20419;-68
2021/03/11 12:19:08;;;;;;;;;;;13.30;99.90;;;;;;5019113;28;19926;-68
2021/03/11 12:21:35;;;;;;;;;;;13.40;99.90;;;;;;5019410;28;19925;-69
2021/03/11 12:24:02;;;;;;;;;;;13.40;99.90;;;;;;5019346;28;19925;-68
2021/03/11 12:26:28;;;;;;;;;;;13.30;99.90;;;;;;5018743;28;20399;-67
2021/03/11 12:28:54;;;;;;;;;;;13.30;99.90;;;;;;5019334;28;19999;-68
2021/03/11 12:31:21;;;;;;;;;;;13.50;99.90;;;;;;5019094;28;19926;-69
2021/03/11 12:33:49;;;;;;;;;;;13.70;99.90;;;;;;5019407;28;19925;-69
2021/03/11 12:36:16;;;;;;;;;;;14.10;99.90;;;;;;5018782;28;19925;-68
2021/03/11 12:38:42;;;;;;;;;;;14.20;99.90;;;;;;5019755;28;19930;-68
2021/03/11 12:41:08;;;;;;;;;;;14.50;99.90;;;;;;5018785;28;19925;-68
2021/03/11 12:43:35;;;;;;;;;;;14.70;99.90;;;;;;5018796;28;20273;-69
2021/03/11 12:46:01;;;;;;;;;;;14.90;99.90;;;;;;5018656;28;19934;-68
2021/03/11 12:48:28;;;;;;;;;;;14.70;99.90;;;;;;5018472;28;19948;-68
2021/03/11 12:50:54;;;;;;;;;;;14.70;99.90;;;;;;5018307;28;19929;-69
2021/03/11 12:53:21;;;;;;;;;;;14.70;99.90;;;;;;5018581;28;19932;-68
2021/03/11 12:55:47;;;;;;;;;;;15.00;99.90;;;;;;5018676;28;19931;-68
2021/03/11 12:58:13;;;;;;;;;;;15.20;99.90;;;;;;5018200;28;20347;-68
2021/03/11 13:00:39;;;;;;;;;;;15.30;99.90;;;;;;5018438;28;19948;-69
2021/03/11 13:03:06;;;;;;;;;;;15.30;99.90;;;;;;5018077;28;19952;-67
2021/03/11 13:05:32;;;;;;;;;;;15.40;99.90;;;;;;5018136;28;19933;-68
2021/03/11 13:07:59;;;;;;;;;;;15.40;99.90;;;;;;5018052;28;19926;-68
2021/03/11 13:10:25;;;;;;;;;;;15.60;99.90;;;;;;5018324;28;19933;-69
2021/03/11 13:12:52;;;;;;;;;;;15.50;99.90;;;;;;5018490;28;19925;-68
2021/03/11 13:15:19;;;;;;;;;;;15.60;99.90;;;;;;5018640;28;19933;-68
2021/03/11 13:17:45;;;;;;;;;;;15.50;99.90;;;;;;5018692;28;19933;-68
2021/03/11 13:20:12;;;;;;;;;;;15.40;99.90;;;;;;5018449;28;19925;-69
2021/03/11 13:22:38;;;;;;;;;;;15.60;99.90;;;;;;5018480;28;19929;-68
2021/03/11 13:25:05;;;;;;;;;;;15.90;99.90;;;;;;5017449;28;19925;-68
2021/03/11 13:27:31;;;;;;;;;;;15.70;99.90;;;;;;5017742;28;19932;-68
2021/03/11 13:29:59;;;;;;;;;;;15.40;99.90;;;;;;5017591;28;19926;-68
2021/03/11 13:32:25;;;;;;;;;;;15.50;99.90;;;;;;5017279;28;19926;-68
2021/03/11 13:34:51;;;;;;;;;;;15.20;99.90;;;;;;5017167;28;20411;-67
2021/03/11 13:37:17;;;;;;;;;;;15.10;99.90;;;;;;5017768;28;19933;-69
2021/03/11 13:39:44;;;;;;;;;;;15.20;99.90;;;;;;5017163;28;20093;-69
2021/03/11 13:42:10;;;;;;;;;;;15.60;99.90;;;;;;5017065;28;19933;-67
2021/03/11 13:44:36;;;;;;;;;;;16.10;99.90;;;;;;5016585;28;19933;-68
2021/03/11 13:47:02;;;;;;;;;;;16.10;99.90;;;;;;5017113;28;20319;-69
2021/03/11 13:49:28;;;;;;;;;;;16.00;99.90;;;;;;5016811;28;19948;-68
2021/03/11 13:51:54;;;;;;;;;;;15.60;99.90;;;;;;5017129;28;19965;-68
2021/03/11 13:54:20;;;;;;;;;;;15.40;99.90;;;;;;5017130;28;19926;-69
2021/03/11 13:56:47;;;;;;;;;;;15.50;99.90;;;;;;5016884;28;19926;-67
2021/03/11 13:59:13;;;;;;;;;;;15.60;99.90;;;;;;5016586;28;20343;-68
2021/03/11 14:01:39;;;;;;;;;;;15.40;99.90;;;;;;5016971;28;19976;-69
2021/03/11 14:04:05;;;;;;;;;;;15.70;99.90;;;;;;5016807;28;19926;-68
2021/03/11 14:06:31;;;;;;;;;;;15.40;99.90;;;;;;5016550;28;19932;-68
2021/03/11 14:08:57;;;;;;;;;;;15.70;99.90;;;;;;5016475;28;19980;-68
2021/03/11 14:11:23;;;;;;;;;;;15.70;99.90;;;;;;5016138;28;19937;-69
2021/03/11 14:13:50;;;;;;;;;;;15.50;99.90;;;;;;5015691;28;19926;-67
2021/03/11 14:16:16;;;;;;;;;;;15.20;99.90;;;;;;5015607;28;19926;-68
2021/03/11 14:18:43;;;;;;;;;;;15.00;99.90;;;;;;5015762;28;19972;-67
2021/03/11 14:21:09;;;;;;;;;;;15.00;99.90;;;;;;5015640;28;19948;-67
2021/03/11 14:23:35;;;;;;;;;;;15.00;99.90;;;;;;5015806;28;19926;-67
2021/03/11 14:26:01;;;;;;;;;;;14.80;99.90;;;;;;5015478;28;19932;-67
2021/03/11 14:28:27;;;;;;;;;;;14.80;99.90;;;;;;5014646;28;19925;-67
2021/03/11 14:30:54;;;;;;;;;;;14.70;99.90;;;;;;5015543;28;19929;-67
2021/03/11 14:33:20;;;;;;;;;;;14.60;99.90;;;;;;5015269;28;19932;-69
2021/03/11 14:35:46;;;;;;;;;;;14.50;99.90;;;;;;5015347;28;20384;-68
2021/03/11 14:38:13;;;;;;;;;;;14.50;99.90;;;;;;5015016;28;20411;-68
2021/03/11 14:40:39;;;;;;;;;;;14.40;99.90;;;;;;5015491;28;19989;-68
2021/03/11 14:43:06;;;;;;;;;;;14.30;99.90;;;;;;5015482;28;19926;-69
2021/03/11 14:45:32;;;;;;;;;;;14.30;99.90;;;;;;5015664;28;19977;-69
2021/03/11 14:47:59;;;;;;;;;;;14.40;99.90;;;;;;5015436;28;20344;-68
2021/03/11 14:50:25;;;;;;;;;;;14.60;99.90;;;;;;5015040;28;19932;-68
2021/03/11 14:52:52;;;;;;;;;;;14.40;99.90;;;;;;5014894;28;20434;-69
2021/03/11 14:55:18;;;;;;;;;;;14.40;99.90;;;;;;5015040;28;19926;-69
2021/03/11 14:57:44;;;;;;;;;;;14.20;99.90;;;;;;5014903;28;19985;-67
2021/03/11 15:00:11;;;;;;;;;;;14.10;99.90;;;;;;5014675;28;19932;-68
2021/03/11 15:02:37;;;;;;;;;;;13.90;99.90;;;;;;5014643;28;20388;-67
2021/03/11 15:05:04;;;;;;;;;;;13.70;99.90;;;;;;5014552;28;19929;-67
2021/03/11 15:07:31;;;;;;;;;;;13.50;99.90;;;;;;5014576;28;19937;-67
2021/03/11 15:09:57;;;;;;;;;;;13.50;99.90;;;;;;5014257;28;19925;-68
2021/03/11 15:12:23;;;;;;;;;;;13.50;99.90;;;;;;5014838;28;19926;-69
2021/03/11 15:14:49;;;;;;;;;;;13.40;99.90;;;;;;5014466;28;20334;-67
2021/03/11 15:17:15;;;;;;;;;;;13.50;99.90;;;;;;5014640;28;20388;-67
2021/03/11 15:19:41;;;;;;;;;;;13.70;99.90;;;;;;5014785;28;20004;-68
2021/03/11 15:22:08;;;;;;;;;;;13.90;99.90;;;;;;5014330;28;19929;-67
2021/03/11 15:24:34;;;;;;;;;;;14.10;99.90;;;;;;5014596;28;19926;-67
2021/03/11 15:27:03;;;;;;;;;;;14.40;99.90;;;;;;5014504;28;19929;-68
2021/03/11 15:29:29;;;;;;;;;;;14.50;99.90;;;;;;5014507;28;19926;-67
2021/03/11 15:31:55;;;;;;;;;;;14.40;99.90;;;;;;5014457;28;19976;-68
2021/03/11 15:34:21;;;;;;;;;;;14.30;99.90;;;;;;5014579;28;19976;-67
2021/03/11 15:36:47;;;;;;;;;;;14.10;99.90;;;;;;5014449;28;19926;-68
2021/03/11 15:39:14;;;;;;;;;;;14.00;99.90;;;;;;5014017;28;19925;-67
2021/03/11 15:41:40;;;;;;;;;;;13.90;99.90;;;;;;5014559;28;19937;-68
2021/03/11 15:44:06;;;;;;;;;;;13.80;99.90;;;;;;5014448;28;19926;-67
2021/03/11 15:46:32;;;;;;;;;;;13.60;99.90;;;;;;5014408;28;19926;-68
2021/03/11 15:48:58;;;;;;;;;;;13.50;99.90;;;;;;5014346;28;19925;-67
2021/03/11 15:51:24;;;;;;;;;;;13.40;99.90;;;;;;5014271;28;19933;-68
2021/03/11 15:53:50;;;;;;;;;;;13.30;99.90;;;;;;5014412;28;19929;-68
2021/03/11 15:56:17;;;;;;;;;;;13.20;99.90;;;;;;5014237;28;19932;-67
2021/03/11 15:58:43;;;;;;;;;;;13.10;99.90;;;;;;5014523;28;19933;-68
2021/03/11 16:01:09;;;;;;;;;;;13.00;99.90;;;;;;5014169;28;19925;-66
2021/03/11 16:03:35;;;;;;;;;;;13.00;99.90;;;;;;5014232;28;19926;-67
2021/03/11 16:06:01;;;;;;;;;;;13.10;99.90;;;;;;5014151;28;19972;-67
2021/03/11 16:08:27;;;;;;;;;;;13.00;99.90;;;;;;5013649;28;19929;-67
2021/03/11 16:10:53;;;;;;;;;;;13.10;99.90;;;;;;5014284;28;19929;-68
2021/03/11 16:13:20;;;;;;;;;;;13.10;99.90;;;;;;5014180;28;19932;-67
2021/03/11 16:15:46;;;;;;;;;;;13.00;99.90;;;;;;5014329;28;20305;-67
2021/03/11 16:18:13;;;;;;;;;;;13.00;99.90;;;;;;5014717;28;19925;-69
2021/03/11 16:20:39;;;;;;;;;;;13.00;99.90;;;;;;5013939;28;20265;-68
2021/03/11 16:23:05;;;;;;;;;;;13.00;99.90;;;;;;5014016;28;19925;-67
2021/03/11 16:25:31;;;;;;;;;;;12.90;99.90;;;;;;5013917;28;20293;-68
2021/03/11 16:27:57;;;;;;;;;;;12.60;99.90;;;;;;5014562;28;19925;-67
2021/03/11 16:30:24;;;;;;;;;;;12.50;99.90;;;;;;5013970;28;19933;-67
2021/03/11 16:32:51;;;;;;;;;;;12.40;99.90;;;;;;5013767;28;19940;-67
2021/03/11 16:35:17;;;;;;;;;;;12.20;99.90;;;;;;5013589;28;19925;-68
2021/03/11 16:37:44;;;;;;;;;;;12.10;99.90;;;;;;5014559;28;19925;-67
2021/03/11 16:40:10;;;;;;;;;;;12.00;99.90;;;;;;5013586;28;20389;-68
2021/03/11 16:42:37;;;;;;;;;;;12.00;99.90;;;;;;5016150;28;19933;-66
2021/03/11 16:45:04;;;;;;;;;;;12.10;99.90;;;;;;5018966;28;19929;-66
2021/03/11 16:47:30;;;;;;;;;;;12.20;99.90;;;;;;5016034;28;19932;-66
2021/03/11 16:49:59;;;;;;;;;;;12.20;99.90;;;;;;5016281;28;19926;-66
2021/03/11 16:52:25;;;;;;;;;;;12.20;99.90;;;;;;5017863;28;19929;-66
2021/03/11 16:54:52;;;;;;;;;;;12.40;99.90;;;;;;5018356;28;19980;-67
2021/03/11 16:57:18;;;;;;;;;;;12.40;99.90;;;;;;5017692;28;19995;-66
2021/03/11 16:59:44;;;;;;;;;;;12.30;99.90;;;;;;5017300;28;19930;-67
2021/03/11 17:02:10;;;;;;;;;;;12.20;99.90;;;;;;5017295;28;19925;-66
2021/03/11 17:04:37;;;;;;;;;;;12.20;99.90;;;;;;5017823;28;19949;-66
2021/03/11 17:07:03;;;;;;;;;;;12.00;99.90;;;;;;5017348;28;19926;-67
2021/03/11 17:09:29;;;;;;;;;;;12.00;99.90;;;;;;5030952;22;19925;-64
2021/03/11 17:11:55;;;;;;;;;;;12.00;99.90;;;;;;4997076;28;20410;-61
2021/03/11 17:14:21;;;;;;;;;;;11.90;99.90;;;;;;4997886;28;19926;-62
2021/03/11 17:16:47;;;;;;;;;;;12.00;99.90;;;;;;5003432;28;19926;-61
2021/03/11 17:19:13;;;;;;;;;;;11.90;99.90;;;;;;5003418;28;19925;-62
2021/03/11 17:21:40;;;;;;;;;;;12.00;99.90;;;;;;5000776;28;20407;-63
2021/03/11 17:24:07;;;;;;;;;;;11.80;99.90;;;;;;4996810;28;19933;-62
2021/03/11 17:26:33;;;;;;;;;;;11.70;99.90;;;;;;4996856;28;19989;-61
2021/03/11 17:28:59;;;;;;;;;;;11.70;99.90;;;;;;4996504;28;19937;-62
2021/03/11 17:31:26;;;;;;;;;;;11.60;99.90;;;;;;4996809;28;19933;-60
2021/03/11 17:33:52;;;;;;;;;;;11.50;99.90;;;;;;4996591;28;19925;-60
2021/03/11 17:36:18;;;;;;;;;;;11.50;99.90;;;;;;4996691;28;20292;-61
2021/03/11 17:38:45;;;;;;;;;;;11.50;99.90;;;;;;4996542;28;19926;-61
2021/03/11 17:41:11;;;;;;;;;;;11.70;99.90;;;;;;4996527;28;19929;-61
2021/03/11 17:43:37;;;;;;;;;;;11.70;99.90;;;;;;4996503;28;19926;-61
2021/03/11 17:46:04;;;;;;;;;;;11.60;99.90;;;;;;4996230;28;19926;-61
2021/03/11 17:48:30;;;;;;;;;;;11.50;99.90;;;;;;4996198;28;19973;-61
2021/03/11 17:50:56;;;;;;;;;;;11.40;99.90;;;;;;4995879;28;19926;-61
2021/03/11 17:53:22;;;;;;;;;;;11.40;99.90;;;;;;4996066;28;19933;-62
2021/03/11 17:55:49;;;;;;;;;;;11.40;99.90;;;;;;4995998;28;19926;-63
2021/03/11 17:58:15;;;;;;;;;;;11.30;99.90;;;;;;4996182;28;19937;-63
2021/03/11 18:00:41;;;;;;;;;;;11.30;99.90;;;;;;4995999;28;19926;-62
2021/03/11 18:03:07;;;;;;;;;;;11.20;99.90;;;;;;4995946;28;20404;-62
2021/03/11 18:05:33;;;;;;;;;;;11.10;99.90;;;;;;4999572;28;20381;-62
2021/03/11 18:07:59;;;;;;;;;;;11.00;99.90;;;;;;4996071;28;19934;-61
2021/03/11 18:10:25;;;;;;;;;;;11.00;99.90;;;;;;4995470;28;19925;-62
2021/03/11 18:12:52;;;;;;;;;;;10.90;99.90;;;;;;4996024;28;19932;-62
2021/03/11 18:15:19;;;;;;;;;;;10.90;99.90;;;;;;4995747;28;19926;-62
2021/03/11 18:17:45;;;;;;;;;;;10.80;99.90;;;;;;4995897;28;19936;-62
2021/03/11 18:20:13;;;;;;;;;;;10.80;99.90;;;;;;4995946;28;19926;-62
2021/03/11 18:22:40;;;;;;;;;;;10.70;99.90;;;;;;4995662;28;19930;-62
2021/03/11 18:25:07;;;;;;;;;;;10.70;99.90;;;;;;4996150;28;19925;-62
2021/03/11 18:27:33;;;;;;;;;;;10.70;99.90;;;;;;4995960;28;19925;-62
2021/03/11 18:30:00;;;;;;;;;;;10.60;99.90;;;;;;4995837;28;19929;-62
2021/03/11 18:32:26;;;;;;;;;;;10.60;99.90;;;;;;4996069;28;19926;-62
2021/03/11 18:34:53;;;;;;;;;;;10.60;99.90;;;;;;4996727;28;19925;-62
2021/03/11 18:37:19;;;;;;;;;;;10.60;99.90;;;;;;4996518;28;19937;-66
2021/03/11 18:39:45;;;;;;;;;;;10.60;99.90;;;;;;4995813;28;19926;-62
2021/03/11 18:42:12;;;;;;;;;;;10.60;99.90;;;;;;4995965;28;20296;-62
2021/03/11 18:44:38;;;;;;;;;;;10.60;99.90;;;;;;4995952;28;19976;-63
2021/03/11 18:47:05;;;;;;;;;;;10.60;99.90;;;;;;4995735;28;19930;-61
2021/03/11 18:49:31;;;;;;;;;;;10.60;99.90;;;;;;4995793;28;19929;-61
2021/03/11 18:51:57;;;;;;;;;;;10.60;99.90;;;;;;4995913;28;19937;-62
2021/03/11 18:54:23;;;;;;;;;;;10.60;99.90;;;;;;4995887;28;19926;-62
2021/03/11 18:56:50;;;;;;;;;;;10.60;99.90;;;;;;4995649;28;19930;-61
2021/03/11 18:59:16;;;;;;;;;;;10.60;99.90;;;;;;4995356;28;19926;-61
2021/03/11 19:01:43;;;;;;;;;;;10.60;99.90;;;;;;4995692;28;19933;-62
2021/03/11 19:04:10;;;;;;;;;;;10.60;99.90;;;;;;4995566;28;19929;-61
2021/03/11 19:06:36;;;;;;;;;;;10.50;99.90;;;;;;4995944;28;19948;-62
2021/03/11 19:09:02;;;;;;;;;;;10.50;99.90;;;;;;4995581;28;19926;-62
2021/03/11 19:11:28;;;;;;;;;;;10.50;99.90;;;;;;4995075;28;19925;-64
2021/03/11 19:13:54;;;;;;;;;;;10.50;99.90;;;;;;4995059;28;19937;-62
2021/03/11 19:16:20;;;;;;;;;;;10.50;99.90;;;;;;4996031;28;19926;-63